Time;durP1;ratioP1;P1;durP2;ratioP2;P2;SDS_P1;SDS_P2;PMS_P1;PMS_P2;Temp;Humidity;BMP_temperature;BMP_pressure;BME280_temperature;BME280_humidity;BME280_pressure;Samples;Min_cycle;Max_cycle;Signal;HPM_P1;HPM_P2
2021/11/08 00:00:08;;;;;;;4.95;2.40;;;;;;;;;;5072463;28;20055;-36
2021/11/08 00:02:36;;;;;;;5.85;1.52;;;;;;;;;;5074458;28;20502;-36
2021/11/08 00:05:01;;;;;;;8.18;2.13;;;;;;;;;;5074585;28;20029;-36
2021/11/08 00:07:27;;;;;;;2.75;1.63;;;;;;;;;;5073276;28;20024;-36
2021/11/08 00:09:53;;;;;;;6.93;2.10;;;;;;;;;;5074722;28;20382;-36
2021/11/08 00:12:21;;;;;;;3.85;2.00;;;;;;;;;;5073202;28;20028;-36
2021/11/08 00:14:47;;;;;;;3.95;1.73;;;;;;;;;;5074673;28;20383;-36
2021/11/08 00:17:32;;;;;;;4.00;2.42;;;;;;;;;;5074415;28;20028;-36
2021/11/08 00:20:07;;;;;;;4.78;2.10;;;;;;;;;;5074394;28;20083;-36
2021/11/08 00:22:36;;;;;;;8.80;2.00;;;;;;;;;;5074476;28;20127;-36
2021/11/08 00:25:03;;;;;;;5.65;2.67;;;;;;;;;;5074298;28;20024;-36
2021/11/08 00:27:29;;;;;;;2.30;1.80;;;;;;;;;;5074159;28;20063;-36
2021/11/08 00:29:55;;;;;;;4.30;1.70;;;;;;;;;;5074121;28;20020;-36
2021/11/08 00:32:21;;;;;;;5.75;2.13;;;;;;;;;;5074090;28;20050;-36
2021/11/08 00:34:47;;;;;;;1.73;1.35;;;;;;;;;;5073009;28;20020;-36
2021/11/08 00:37:13;;;;;;;3.33;2.08;;;;;;;;;;5074014;28;20528;-36
2021/11/08 00:39:38;;;;;;;7.32;2.70;;;;;;;;;;5073841;28;20036;-36
2021/11/08 00:42:04;;;;;;;6.38;2.30;;;;;;;;;;5074199;28;20020;-36
2021/11/08 00:44:30;;;;;;;5.75;2.65;;;;;;;;;;5073810;28;20469;-36
2021/11/08 00:46:57;;;;;;;5.70;2.05;;;;;;;;;;5073860;28;20103;-36
2021/11/08 00:49:24;;;;;;;5.70;3.40;;;;;;;;;;5073712;28;20067;-36
2021/11/08 00:51:49;;;;;;;2.33;1.67;;;;;;;;;;5074045;28;20356;-36
2021/11/08 00:54:16;;;;;;;5.75;2.00;;;;;;;;;;5073593;28;20032;-36
2021/11/08 00:56:44;;;;;;;5.70;2.30;;;;;;;;;;5073748;28;20230;-36
2021/11/08 00:59:13;;;;;;;2.00;1.52;;;;;;;;;;5073535;28;20059;-36
2021/11/08 01:01:38;;;;;;;5.32;2.25;;;;;;;;;;5073799;28;20029;-36
2021/11/08 01:04:04;;;;;;;4.35;2.22;;;;;;;;;;5073637;28;20050;-36
2021/11/08 01:06:29;;;;;;;4.07;1.67;;;;;;;;;;5055725;28;20039;-36
2021/11/08 01:08:55;;;;;;;3.65;1.95;;;;;;;;;;5073813;28;20024;-36
2021/11/08 01:11:20;;;;;;;3.20;1.80;;;;;;;;;;5071038;28;20078;-36
2021/11/08 01:13:46;;;;;;;4.75;2.15;;;;;;;;;;5073557;28;20509;-36
2021/11/08 01:16:12;;;;;;;3.88;2.33;;;;;;;;;;5073314;28;20467;-36
2021/11/08 01:18:38;;;;;;;4.57;1.88;;;;;;;;;;5073155;28;20107;-36
2021/11/08 01:21:06;;;;;;;5.32;1.98;;;;;;;;;;5073276;28;20138;-36
2021/11/08 01:23:32;;;;;;;2.00;1.63;;;;;;;;;;5073206;28;20044;-36
2021/11/08 01:26:02;;;;;;;3.17;1.60;;;;;;;;;;5073146;28;20117;-36
2021/11/08 01:28:35;;;;;;;3.83;2.00;;;;;;;;;;5073310;28;20487;-36
2021/11/08 01:31:00;;;;;;;3.88;2.53;;;;;;;;;;5073051;28;20056;-36
2021/11/08 01:33:26;;;;;;;2.22;1.98;;;;;;;;;;5073019;28;20106;-36
2021/11/08 01:36:28;;;;;;;5.97;1.90;;;;;;;;;;5072695;28;20044;-36
2021/11/08 01:38:51;;;;;;;2.28;1.85;;;;;;;;;;5070692;28;20048;-36
2021/11/08 01:41:22;;;;;;;3.15;1.85;;;;;;;;;;5072645;28;20074;-37
2021/11/08 01:43:48;;;;;;;4.35;2.40;;;;;;;;;;5073084;28;20370;-36
2021/11/08 01:46:15;;;;;;;3.65;2.13;;;;;;;;;;5072541;28;20032;-36
2021/11/08 01:48:41;;;;;;;3.17;1.88;;;;;;;;;;5072590;28;20054;-36
2021/11/08 01:51:07;;;;;;;4.85;1.77;;;;;;;;;;5072574;28;20016;-35
2021/11/08 01:53:33;;;;;;;3.63;2.20;;;;;;;;;;5072502;28;20032;-36
2021/11/08 01:55:59;;;;;;;2.53;1.63;;;;;;;;;;5072545;28;20013;-36
2021/11/08 01:58:27;;;;;;;4.35;2.05;;;;;;;;;;5071333;28;20033;-36
2021/11/08 02:00:52;;;;;;;3.97;1.88;;;;;;;;;;5072433;28;20033;-36
2021/11/08 02:03:19;;;;;;;3.83;1.95;;;;;;;;;;5072462;28;20028;-36
2021/11/08 02:05:45;;;;;;;5.00;1.80;;;;;;;;;;5072326;28;20474;-36
2021/11/08 02:08:11;;;;;;;3.47;2.25;;;;;;;;;;5072392;28;20033;-36
2021/11/08 02:10:37;;;;;;;3.53;2.38;;;;;;;;;;5072284;28;20016;-36
2021/11/08 02:13:04;;;;;;;5.15;2.03;;;;;;;;;;5072253;28;20025;-36
2021/11/08 02:15:31;;;;;;;2.80;1.75;;;;;;;;;;5072023;28;20024;-36
2021/11/08 02:17:56;;;;;;;3.50;1.92;;;;;;;;;;5072024;28;20111;-36
2021/11/08 02:20:27;;;;;;;3.53;2.15;;;;;;;;;;5071861;28;20140;-36
2021/11/08 02:22:54;;;;;;;4.30;2.05;;;;;;;;;;5071645;28;20028;-36
2021/11/08 02:25:21;;;;;;;2.40;1.63;;;;;;;;;;5072047;28;20036;-36
2021/11/08 02:27:48;;;;;;;3.95;2.38;;;;;;;;;;5072145;28;20553;-36
2021/11/08 02:30:14;;;;;;;7.25;2.50;;;;;;;;;;5071846;28;20037;-37
2021/11/08 02:32:41;;;;;;;2.45;1.77;;;;;;;;;;5071823;28;20039;-36
2021/11/08 02:35:08;;;;;;;2.95;1.92;;;;;;;;;;5071531;28;20053;-36
2021/11/08 02:37:34;;;;;;;5.50;1.98;;;;;;;;;;5071646;28;20041;-36
2021/11/08 02:40:01;;;;;;;5.55;2.13;;;;;;;;;;5071850;28;20056;-36
2021/11/08 02:42:27;;;;;;;2.90;1.92;;;;;;;;;;5071609;28;20024;-36
2021/11/08 02:44:53;;;;;;;3.20;1.58;;;;;;;;;;5071675;28;20725;-36
2021/11/08 02:47:18;;;;;;;5.95;1.80;;;;;;;;;;5053592;28;20490;-36
2021/11/08 02:49:46;;;;;;;11.10;2.90;;;;;;;;;;5071636;28;20044;-36
2021/11/08 02:52:15;;;;;;;2.50;1.35;;;;;;;;;;5071541;28;20111;-36
2021/11/08 02:54:43;;;;;;;2.35;1.90;;;;;;;;;;5071388;28;20430;-36
2021/11/08 02:57:09;;;;;;;2.85;1.73;;;;;;;;;;5071541;28;20036;-36
2021/11/08 02:59:37;;;;;;;2.65;1.80;;;;;;;;;;5071525;28;20035;-36
2021/11/08 03:02:07;;;;;;;5.00;2.28;;;;;;;;;;5071472;28;20102;-36
2021/11/08 03:04:43;;;;;;;3.05;1.35;;;;;;;;;;5053303;28;20032;-36
2021/11/08 03:07:10;;;;;;;3.45;1.90;;;;;;;;;;5071420;28;20601;-36
2021/11/08 03:09:38;;;;;;;3.13;1.63;;;;;;;;;;5071519;28;20021;-36
2021/11/08 03:12:12;;;;;;;2.95;2.22;;;;;;;;;;5071302;28;20082;-36
2021/11/08 03:14:45;;;;;;;2.30;1.83;;;;;;;;;;5071138;28;20466;-36
2021/11/08 03:17:12;;;;;;;6.95;2.22;;;;;;;;;;5071657;28;20020;-36
2021/11/08 03:19:39;;;;;;;3.60;1.88;;;;;;;;;;5071124;28;20044;-36
2021/11/08 03:22:14;;;;;;;1.92;1.40;;;;;;;;;;5071319;28;20021;-36
2021/11/08 03:24:43;;;;;;;5.82;2.08;;;;;;;;;;5071077;28;20408;-36
2021/11/08 03:27:17;;;;;;;3.75;2.28;;;;;;;;;;5071264;28;20051;-36
2021/11/08 03:29:43;;;;;;;5.63;2.45;;;;;;;;;;5069727;28;20375;-36
2021/11/08 03:32:10;;;;;;;5.03;2.47;;;;;;;;;;5071226;28;20027;-36
2021/11/08 03:34:38;;;;;;;6.68;2.75;;;;;;;;;;5070377;28;20445;-36
2021/11/08 03:37:04;;;;;;;6.10;2.45;;;;;;;;;;5075030;28;20048;-37
2021/11/08 03:39:30;;;;;;;6.78;3.13;;;;;;;;;;5057171;28;20047;-36
2021/11/08 03:41:55;;;;;;;3.85;2.47;;;;;;;;;;5075093;28;20013;-36
2021/11/08 03:44:21;;;;;;;3.95;2.42;;;;;;;;;;5074971;28;20032;-36
2021/11/08 03:46:47;;;;;;;6.13;3.42;;;;;;;;;;5075005;28;20013;-36
2021/11/08 03:49:12;;;;;;;8.13;3.42;;;;;;;;;;5075123;28;20032;-36
2021/11/08 03:51:38;;;;;;;6.05;2.67;;;;;;;;;;5074861;28;20482;-36
2021/11/08 03:54:04;;;;;;;8.43;2.35;;;;;;;;;;5074935;28;20033;-36
2021/11/08 03:56:30;;;;;;;3.42;2.40;;;;;;;;;;5074750;28;20012;-36
2021/11/08 03:58:56;;;;;;;3.85;2.20;;;;;;;;;;5075030;28;20158;-36
2021/11/08 04:01:22;;;;;;;9.15;2.85;;;;;;;;;;5074585;28;20406;-37
2021/11/08 04:03:48;;;;;;;6.63;2.88;;;;;;;;;;5073379;28;20046;-36
2021/11/08 04:06:13;;;;;;;7.18;3.03;;;;;;;;;;5074678;28;20028;-36
2021/11/08 04:08:39;;;;;;;5.22;1.92;;;;;;;;;;5074501;28;20104;-35
2021/11/08 04:11:05;;;;;;;3.38;1.80;;;;;;;;;;5074818;28;20447;-36
2021/11/08 04:13:36;;;;;;;3.33;2.50;;;;;;;;;;5074625;28;20028;-36
2021/11/08 04:16:03;;;;;;;4.75;2.53;;;;;;;;;;5074404;28;20548;-36
2021/11/08 04:18:30;;;;;;;5.18;2.38;;;;;;;;;;5074145;28;20024;-36
2021/11/08 04:20:57;;;;;;;5.03;1.52;;;;;;;;;;5074677;28;20094;-36
2021/11/08 04:23:24;;;;;;;3.80;1.63;;;;;;;;;;5074258;28;20475;-36
2021/11/08 04:25:50;;;;;;;2.13;1.35;;;;;;;;;;5074188;28;20028;-37
2021/11/08 04:28:15;;;;;;;5.40;1.40;;;;;;;;;;5074280;28;20100;-36
2021/11/08 04:30:43;;;;;;;3.03;1.92;;;;;;;;;;5074388;28;20083;-36
2021/11/08 04:33:53;;;;;;;2.60;1.98;;;;;;;;;;5074449;28;20094;-36
2021/11/08 04:38:41;;;;;;;1.83;1.67;;;;;;;;;;5074264;28;20376;-36
2021/11/08 04:43:53;;;;;;;2.35;1.35;;;;;;;;;;5073916;28;20290;-37
2021/11/08 05:29:55;;;;;;;0.20;0.20;;;;;;;;;;5073334;28;20092;-36
2021/11/08 05:31:28;;;;;;;0.32;0.32;;;;;;;;;;5072452;28;20426;-36
2021/11/08 05:33:53;;;;;;;0.20;0.20;;;;;;;;;;5073025;28;20039;-36
2021/11/08 05:36:19;;;;;;;0.25;0.25;;;;;;;;;;5072809;28;20051;-36
2021/11/08 05:38:44;;;;;;;0.20;0.15;;;;;;;;;;5072849;28;20028;-36
2021/11/08 05:41:10;;;;;;;0.40;0.38;;;;;;;;;;5071717;28;20111;-36
2021/11/08 05:43:35;;;;;;;0.63;0.55;;;;;;;;;;5072975;28;20073;-36
2021/11/08 05:46:01;;;;;;;0.20;0.20;;;;;;;;;;5072769;28;20440;-36
2021/11/08 05:48:27;;;;;;;0.20;0.20;;;;;;;;;;5072645;28;20024;-36
2021/11/08 05:50:52;;;;;;;0.38;0.38;;;;;;;;;;5072699;28;20375;-37
2021/11/08 05:53:17;;;;;;;0.32;0.32;;;;;;;;;;5072547;28;20157;-37
2021/11/08 06:01:43;;;;;;;0.35;0.30;;;;;;;;;;5072406;28;20121;-37
2021/11/08 06:49:53;;;;;;;1.80;0.30;;;;;;;;;;5053745;28;20417;-36
2021/11/08 06:52:19;;;;;;;0.90;0.20;;;;;;;;;;5071579;28;20027;-36
2021/11/08 06:54:45;;;;;;;0.30;0.20;;;;;;;;;;5071453;28;20115;-37
2021/11/08 06:57:14;;;;;;;0.30;0.30;;;;;;;;;;5071494;28;20471;-36
2021/11/08 06:59:44;;;;;;;0.10;0.10;;;;;;;;;;5071449;28;20119;-37
2021/11/08 07:02:10;;;;;;;0.22;0.22;;;;;;;;;;5071792;28;20033;-36
2021/11/08 07:04:36;;;;;;;0.30;0.30;;;;;;;;;;5071389;28;20021;-36
2021/11/08 07:07:01;;;;;;;0.90;0.38;;;;;;;;;;5071803;28;20248;-36
2021/11/08 07:09:27;;;;;;;0.10;0.10;;;;;;;;;;5069015;28;20382;-37
2021/11/08 07:11:54;;;;;;;0.10;0.10;;;;;;;;;;5071398;28;20021;-37
2021/11/08 07:14:19;;;;;;;0.17;0.17;;;;;;;;;;5071620;28;20029;-37
2021/11/08 07:16:45;;;;;;;0.10;0.10;;;;;;;;;;5071149;28;20471;-36
2021/11/08 07:19:11;;;;;;;0.20;0.20;;;;;;;;;;5071534;28;20036;-37
2021/11/08 07:21:37;;;;;;;0.20;0.20;;;;;;;;;;5053193;28;20016;-36
2021/11/08 07:24:03;;;;;;;0.35;0.25;;;;;;;;;;5071136;28;20039;-36
2021/11/08 07:26:28;;;;;;;0.15;0.15;;;;;;;;;;5071225;28;20023;-36
2021/11/08 07:28:54;;;;;;;0.38;0.15;;;;;;;;;;5053341;28;20352;-36
2021/11/08 07:31:19;;;;;;;0.30;0.30;;;;;;;;;;5071207;28;20024;-36
2021/11/08 07:33:45;;;;;;;0.10;0.10;;;;;;;;;;5053153;28;20056;-36
2021/11/08 07:36:10;;;;;;;0.10;0.10;;;;;;;;;;5070989;28;20064;-37
2021/11/08 07:38:36;;;;;;;0.15;0.15;;;;;;;;;;5070924;28;20414;-37
2021/11/08 07:41:03;;;;;;;0.30;0.30;;;;;;;;;;5071047;28;20120;-36
2021/11/08 07:43:29;;;;;;;0.50;0.20;;;;;;;;;;5071059;28;20029;-37
2021/11/08 07:45:54;;;;;;;0.20;0.20;;;;;;;;;;5071087;28;20039;-36
2021/11/08 07:48:21;;;;;;;7.22;0.30;;;;;;;;;;5070986;28;20032;-37
2021/11/08 07:50:47;;;;;;;0.60;0.35;;;;;;;;;;5070980;28;20013;-36
2021/11/08 07:53:13;;;;;;;0.20;0.20;;;;;;;;;;5070732;28;20039;-37
2021/11/08 07:55:39;;;;;;;1.13;0.20;;;;;;;;;;5070943;28;20367;-36
2021/11/08 07:58:05;;;;;;;0.43;0.25;;;;;;;;;;5053179;28;20138;-36
2021/11/08 08:00:31;;;;;;;1.13;0.20;;;;;;;;;;5070778;28;20032;-37
2021/11/08 08:02:58;;;;;;;0.35;0.30;;;;;;;;;;5070982;28;20479;-36
2021/11/08 08:05:23;;;;;;;0.32;0.20;;;;;;;;;;5070716;28;20024;-36
2021/11/08 08:07:49;;;;;;;0.20;0.20;;;;;;;;;;5070820;28;20055;-36
2021/11/08 08:10:15;;;;;;;0.40;0.40;;;;;;;;;;5070849;28;20032;-36
2021/11/08 08:12:40;;;;;;;0.52;0.20;;;;;;;;;;5070688;28;20025;-36
2021/11/08 08:15:06;;;;;;;0.10;0.10;;;;;;;;;;5036252;28;20070;-36
2021/11/08 08:17:32;;;;;;;0.40;0.30;;;;;;;;;;5070625;28;20067;-36
2021/11/08 08:19:57;;;;;;;0.10;0.10;;;;;;;;;;5070439;28;20028;-36
2021/11/08 08:22:24;;;;;;;0.25;0.10;;;;;;;;;;5074087;28;20051;-36
2021/11/08 08:24:50;;;;;;;0.30;0.30;;;;;;;;;;5056411;28;20027;-37
2021/11/08 08:27:16;;;;;;;1.38;0.30;;;;;;;;;;5074288;28;20017;-36
2021/11/08 08:29:41;;;;;;;0.45;0.38;;;;;;;;;;5074242;28;20030;-36
2021/11/08 08:32:08;;;;;;;0.43;0.20;;;;;;;;;;5074236;28;20514;-36
2021/11/08 08:34:33;;;;;;;0.10;0.10;;;;;;;;;;5074051;28;20024;-36
2021/11/08 08:36:59;;;;;;;0.30;0.28;;;;;;;;;;5072653;28;20040;-36
2021/11/08 08:39:25;;;;;;;0.20;0.20;;;;;;;;;;5074276;28;20551;-36
2021/11/08 08:41:51;;;;;;;0.35;0.35;;;;;;;;;;5074058;28;20025;-37
2021/11/08 08:44:17;;;;;;;0.20;0.10;;;;;;;;;;5074159;28;20494;-36
2021/11/08 08:46:43;;;;;;;0.20;0.20;;;;;;;;;;5073918;28;20039;-36
2021/11/08 08:49:08;;;;;;;0.17;0.17;;;;;;;;;;5073883;28;20500;-36
2021/11/08 08:51:35;;;;;;;0.57;0.28;;;;;;;;;;5074163;28;20111;-36
2021/11/08 08:54:01;;;;;;;0.10;0.10;;;;;;;;;;5073802;28;20497;-36
2021/11/08 08:56:27;;;;;;;0.20;0.10;;;;;;;;;;5073585;28;20028;-37
2021/11/08 08:58:53;;;;;;;0.20;0.20;;;;;;;;;;5072538;28;20028;-36
2021/11/08 09:01:19;;;;;;;1.67;0.40;;;;;;;;;;5073954;28;20215;-36
2021/11/08 09:03:45;;;;;;;0.25;0.20;;;;;;;;;;5073556;28;20493;-36
2021/11/08 09:06:10;;;;;;;0.10;0.10;;;;;;;;;;5073699;28;20029;-36
2021/11/08 09:08:38;;;;;;;0.50;0.30;;;;;;;;;;5073398;28;20016;-36
2021/11/08 09:11:04;;;;;;;0.10;0.10;;;;;;;;;;5055510;28;20028;-36
2021/11/08 09:13:29;;;;;;;0.10;0.10;;;;;;;;;;5073354;28;20038;-36
2021/11/08 09:15:55;;;;;;;0.10;0.10;;;;;;;;;;5073358;28;20032;-36
2021/11/08 09:18:20;;;;;;;0.40;0.20;;;;;;;;;;5073569;28;20024;-36
2021/11/08 09:20:46;;;;;;;0.20;0.20;;;;;;;;;;5073380;28;20503;-36
2021/11/08 09:23:12;;;;;;;0.20;0.20;;;;;;;;;;5073181;28;20109;-36
2021/11/08 09:25:38;;;;;;;0.20;0.20;;;;;;;;;;5072895;28;20033;-36
2021/11/08 09:28:05;;;;;;;0.40;0.32;;;;;;;;;;5055508;28;20558;-36
2021/11/08 09:30:32;;;;;;;0.13;0.13;;;;;;;;;;5072873;28;20138;-37
2021/11/08 09:32:58;;;;;;;0.45;0.30;;;;;;;;;;5054048;28;20016;-37
2021/11/08 09:35:31;;;;;;;0.25;0.25;;;;;;;;;;5072821;28;20098;-37
2021/11/08 09:37:58;;;;;;;0.43;0.30;;;;;;;;;;5073112;28;20356;-36
2021/11/08 09:40:23;;;;;;;0.35;0.35;;;;;;;;;;5054905;28;20652;-36
2021/11/08 09:42:51;;;;;;;0.17;0.17;;;;;;;;;;5072806;28;20028;-37
2021/11/08 09:45:16;;;;;;;0.30;0.20;;;;;;;;;;5072987;28;20021;-36
2021/11/08 09:47:44;;;;;;;0.38;0.30;;;;;;;;;;5072723;28;20477;-36
2021/11/08 09:50:11;;;;;;;0.20;0.20;;;;;;;;;;5072962;28;20051;-36
2021/11/08 09:52:38;;;;;;;0.17;0.17;;;;;;;;;;5072632;28;20063;-36
2021/11/08 09:55:04;;;;;;;0.30;0.30;;;;;;;;;;5054713;28;20020;-36
2021/11/08 09:57:30;;;;;;;0.10;0.10;;;;;;;;;;5072422;28;20032;-36
2021/11/08 09:59:56;;;;;;;0.20;0.20;;;;;;;;;;5072711;28;20035;-36
2021/11/08 10:02:21;;;;;;;0.20;0.20;;;;;;;;;;5072486;28;20043;-36
2021/11/08 10:04:48;;;;;;;0.55;0.25;;;;;;;;;;5072676;28;20032;-36
2021/11/08 10:07:15;;;;;;;0.50;0.30;;;;;;;;;;5072308;28;20471;-36
2021/11/08 10:09:40;;;;;;;0.22;0.20;;;;;;;;;;5072284;28;20017;-36
2021/11/08 10:12:08;;;;;;;0.20;0.20;;;;;;;;;;5072278;28;20120;-36
2021/11/08 10:14:34;;;;;;;0.43;0.43;;;;;;;;;;5072006;28;20028;-36
2021/11/08 10:17:01;;;;;;;0.20;0.20;;;;;;;;;;5072537;28;20095;-36
2021/11/08 10:19:27;;;;;;;0.73;0.40;;;;;;;;;;5072236;28;20030;-36
2021/11/08 10:21:54;;;;;;;0.28;0.20;;;;;;;;;;5072006;28;20038;-36
2021/11/08 10:24:23;;;;;;;0.68;0.40;;;;;;;;;;5072347;28;20421;-36
2021/11/08 10:26:50;;;;;;;0.20;0.20;;;;;;;;;;5070672;28;20090;-37
2021/11/08 10:29:18;;;;;;;2.28;0.40;;;;;;;;;;5071931;28;20021;-37
2021/11/08 10:31:45;;;;;;;0.20;0.20;;;;;;;;;;5072188;28;20433;-36
2021/11/08 10:34:11;;;;;;;0.30;0.20;;;;;;;;;;5071915;28;20509;-36
2021/11/08 10:36:37;;;;;;;0.28;0.20;;;;;;;;;;5071658;28;20044;-37
2021/11/08 10:39:04;;;;;;;0.20;0.20;;;;;;;;;;5071755;28;20536;-36
2021/11/08 10:41:32;;;;;;;0.32;0.32;;;;;;;;;;5071644;28;20075;-36
2021/11/08 10:44:18;;;;;;;0.63;0.43;;;;;;;;;;5053634;28;20024;-36
2021/11/08 10:46:45;;;;;;;1.23;0.32;;;;;;;;;;5071244;28;20573;-36
2021/11/08 10:49:13;;;;;;;0.40;0.40;;;;;;;;;;5071606;28;20467;-36
2021/11/08 10:51:40;;;;;;;2.58;0.40;;;;;;;;;;5071852;28;20028;-36
2021/11/08 10:54:10;;;;;;;0.20;0.20;;;;;;;;;;5071883;28;20028;-37
2021/11/08 10:56:44;;;;;;;1.60;0.70;;;;;;;;;;5071461;28;20024;-36
2021/11/08 10:59:14;;;;;;;0.50;0.30;;;;;;;;;;5053674;28;20483;-36
2021/11/08 11:01:45;;;;;;;0.45;0.45;;;;;;;;;;5071749;28;20368;-36
2021/11/08 11:04:10;;;;;;;0.30;0.30;;;;;;;;;;5071452;28;20363;-37
2021/11/08 11:06:41;;;;;;;0.40;0.30;;;;;;;;;;5071358;28;20024;-36
2021/11/08 11:09:20;;;;;;;0.20;0.20;;;;;;;;;;5071434;28;20024;-36
2021/11/08 11:11:47;;;;;;;0.35;0.30;;;;;;;;;;5071184;28;20025;-36
2021/11/08 11:14:14;;;;;;;0.98;0.50;;;;;;;;;;5071334;28;20378;-36
2021/11/08 11:16:41;;;;;;;0.82;0.40;;;;;;;;;;5071336;28;20571;-36
2021/11/08 11:19:11;;;;;;;0.77;0.60;;;;;;;;;;5071237;28;20013;-36
2021/11/08 11:21:37;;;;;;;0.30;0.20;;;;;;;;;;5071529;28;20473;-37
2021/11/08 11:24:05;;;;;;;0.52;0.40;;;;;;;;;;5071249;28;20029;-36
2021/11/08 11:26:35;;;;;;;0.30;0.30;;;;;;;;;;5053348;28;20029;-36
2021/11/08 11:29:01;;;;;;;0.35;0.35;;;;;;;;;;5071228;28;20021;-36
2021/11/08 11:31:28;;;;;;;0.47;0.20;;;;;;;;;;5071514;28;20024;-37
2021/11/08 11:33:58;;;;;;;0.13;0.13;;;;;;;;;;5053164;28;20020;-36
2021/11/08 11:36:26;;;;;;;0.10;0.10;;;;;;;;;;5071033;28;20574;-36
2021/11/08 11:38:55;;;;;;;0.20;0.20;;;;;;;;;;5070866;28;20199;-36
2021/11/08 11:41:23;;;;;;;0.65;0.30;;;;;;;;;;5071406;28;20051;-36
2021/11/08 11:43:50;;;;;;;0.17;0.15;;;;;;;;;;5070960;28;20029;-37
2021/11/08 11:46:15;;;;;;;0.30;0.30;;;;;;;;;;5069717;28;20082;-36
2021/11/08 11:48:41;;;;;;;0.20;0.20;;;;;;;;;;5071317;28;20024;-36
2021/11/08 11:51:08;;;;;;;0.52;0.30;;;;;;;;;;5071031;28;20035;-37
2021/11/08 11:53:34;;;;;;;0.38;0.38;;;;;;;;;;5052980;28;20481;-36
2021/11/08 11:55:59;;;;;;;0.17;0.17;;;;;;;;;;5072323;28;20032;-36
2021/11/08 11:58:25;;;;;;;0.20;0.20;;;;;;;;;;5074798;28;20051;-36
2021/11/08 12:00:52;;;;;;;0.38;0.35;;;;;;;;;;5074593;28;20123;-37
2021/11/08 12:03:18;;;;;;;0.22;0.22;;;;;;;;;;5074726;28;20028;-36
2021/11/08 12:05:47;;;;;;;0.50;0.40;;;;;;;;;;5074593;28;20039;-37
2021/11/08 12:08:13;;;;;;;0.20;0.20;;;;;;;;;;5074632;28;20024;-36
2021/11/08 12:10:52;;;;;;;0.30;0.30;;;;;;;;;;5074490;28;20059;-37
2021/11/08 12:13:23;;;;;;;0.85;0.32;;;;;;;;;;5074569;28;20052;-36
2021/11/08 12:15:50;;;;;;;0.40;0.40;;;;;;;;;;5074379;28;20101;-37
2021/11/08 12:18:16;;;;;;;0.40;0.30;;;;;;;;;;5073210;28;20039;-37
2021/11/08 12:20:48;;;;;;;0.10;0.10;;;;;;;;;;5074552;28;20035;-36
2021/11/08 12:23:24;;;;;;;0.43;0.43;;;;;;;;;;5056431;28;20418;-37
2021/11/08 12:25:51;;;;;;;0.40;0.35;;;;;;;;;;5074261;28;20558;-36
2021/11/08 12:28:21;;;;;;;0.22;0.22;;;;;;;;;;5074512;28;20021;-36
2021/11/08 12:30:50;;;;;;;0.20;0.20;;;;;;;;;;5074257;28;20073;-37
2021/11/08 12:33:26;;;;;;;0.20;0.20;;;;;;;;;;5074462;28;20025;-37
2021/11/08 12:35:53;;;;;;;0.20;0.20;;;;;;;;;;5073838;28;20517;-36
2021/11/08 12:38:24;;;;;;;0.32;0.20;;;;;;;;;;5074249;28;20025;-37
2021/11/08 12:41:03;;;;;;;0.20;0.20;;;;;;;;;;5072759;28;20501;-37
2021/11/08 12:43:31;;;;;;;0.52;0.40;;;;;;;;;;5073971;28;20050;-36
2021/11/08 12:46:07;;;;;;;0.32;0.25;;;;;;;;;;5073951;28;20035;-36
2021/11/08 12:48:33;;;;;;;0.30;0.30;;;;;;;;;;5073980;28;20036;-37
2021/11/08 12:51:00;;;;;;;0.65;0.32;;;;;;;;;;5073861;28;20017;-36
2021/11/08 12:53:27;;;;;;;0.30;0.30;;;;;;;;;;5074189;28;20028;-36
2021/11/08 12:55:54;;;;;;;0.30;0.30;;;;;;;;;;5055788;28;20028;-36
2021/11/08 12:58:30;;;;;;;0.60;0.25;;;;;;;;;;5073686;28;20032;-37
2021/11/08 13:00:56;;;;;;;0.40;0.40;;;;;;;;;;5073801;28;20438;-36
2021/11/08 13:03:30;;;;;;;0.57;0.47;;;;;;;;;;5055677;28;20070;-37
2021/11/08 13:05:58;;;;;;;0.90;0.30;;;;;;;;;;5073588;28;20085;-36
2021/11/08 13:08:25;;;;;;;1.88;0.32;;;;;;;;;;5073545;28;20026;-37
2021/11/08 13:11:10;;;;;;;0.30;0.30;;;;;;;;;;5073569;28;20037;-37
2021/11/08 13:13:41;;;;;;;0.45;0.30;;;;;;;;;;5073299;28;20033;-38
2021/11/08 13:16:11;;;;;;;0.30;0.30;;;;;;;;;;5073485;28;20494;-36
2021/11/08 13:18:39;;;;;;;0.40;0.40;;;;;;;;;;5073284;28;20051;-36
2021/11/08 13:21:05;;;;;;;0.30;0.30;;;;;;;;;;5073594;28;20076;-36
2021/11/08 13:23:32;;;;;;;1.00;0.40;;;;;;;;;;5055234;28;20066;-36
2021/11/08 13:25:58;;;;;;;0.20;0.20;;;;;;;;;;5073214;28;20020;-36
2021/11/08 13:28:28;;;;;;;0.50;0.40;;;;;;;;;;5073311;28;20104;-36
2021/11/08 13:30:54;;;;;;;0.40;0.40;;;;;;;;;;5073351;28;20066;-37
2021/11/08 13:33:27;;;;;;;0.30;0.30;;;;;;;;;;5073144;28;20405;-36
2021/11/08 13:35:57;;;;;;;0.40;0.40;;;;;;;;;;5072976;28;20102;-37
2021/11/08 13:38:23;;;;;;;0.55;0.40;;;;;;;;;;5073086;28;20024;-37
2021/11/08 13:40:56;;;;;;;0.30;0.30;;;;;;;;;;5072818;28;20123;-37
2021/11/08 13:43:23;;;;;;;0.10;0.10;;;;;;;;;;5073242;28;20028;-37
2021/11/08 13:45:56;;;;;;;0.20;0.20;;;;;;;;;;5072810;28;20024;-36
2021/11/08 13:48:32;;;;;;;0.25;0.20;;;;;;;;;;5072759;28;20107;-36
2021/11/08 13:51:00;;;;;;;1.65;0.50;;;;;;;;;;5073161;28;20138;-36
2021/11/08 13:53:50;;;;;;;0.95;0.20;;;;;;;;;;5072637;28;20046;-37
2021/11/08 13:56:16;;;;;;;0.43;0.28;;;;;;;;;;5038050;28;20032;-36
2021/11/08 13:58:52;;;;;;;0.50;0.32;;;;;;;;;;5072540;28;20020;-36
2021/11/08 14:01:19;;;;;;;0.32;0.32;;;;;;;;;;5072453;28;20036;-36
2021/11/08 14:03:46;;;;;;;0.32;0.30;;;;;;;;;;5072384;28;20012;-36
2021/11/08 14:06:14;;;;;;;0.52;0.47;;;;;;;;;;5072483;28;20025;-37
2021/11/08 14:12:13;;;;;;;0.40;0.30;;;;;;;;;;5072711;28;20043;-36
2021/11/08 14:14:38;;;;;;;0.43;0.30;;;;;;;;;;5072155;28;20035;-36
2021/11/08 14:17:09;;;;;;;0.32;0.20;;;;;;;;;;5072465;28;20016;-36
2021/11/08 14:19:34;;;;;;;0.40;0.40;;;;;;;;;;5071587;28;20029;-36
2021/11/08 14:22:00;;;;;;;0.50;0.32;;;;;;;;;;5072442;28;20096;-36
2021/11/08 14:24:26;;;;;;;0.30;0.30;;;;;;;;;;5072324;28;20039;-36
2021/11/08 14:26:54;;;;;;;2.30;0.63;;;;;;;;;;5072267;28;20078;-36
2021/11/08 14:29:21;;;;;;;1.00;0.47;;;;;;;;;;5072053;28;20475;-36
2021/11/08 14:31:54;;;;;;;0.22;0.22;;;;;;;;;;5071886;28;20072;-36
2021/11/08 14:34:22;;;;;;;0.32;0.32;;;;;;;;;;5071950;28;20078;-41
2021/11/08 14:36:48;;;;;;;0.30;0.30;;;;;;;;;;5071723;28;20044;-37
2021/11/08 14:39:16;;;;;;;0.73;0.40;;;;;;;;;;5071734;28;20050;-36
2021/11/08 14:42:03;;;;;;;0.20;0.20;;;;;;;;;;5071850;28;20036;-36
2021/11/08 14:44:37;;;;;;;0.55;0.45;;;;;;;;;;5071850;28;20459;-36
2021/11/08 14:47:13;;;;;;;0.47;0.38;;;;;;;;;;5071640;28;20036;-36
2021/11/08 14:49:39;;;;;;;0.35;0.30;;;;;;;;;;5071715;28;20471;-36
2021/11/08 14:52:06;;;;;;;0.45;0.45;;;;;;;;;;5071655;28;20023;-36
2021/11/08 14:54:33;;;;;;;0.40;0.35;;;;;;;;;;5071507;28;20029;-36
2021/11/08 14:57:00;;;;;;;0.32;0.32;;;;;;;;;;5071950;28;20390;-36
2021/11/08 14:59:28;;;;;;;0.88;0.60;;;;;;;;;;5053762;28;20489;-36
2021/11/08 15:02:01;;;;;;;0.40;0.40;;;;;;;;;;5071591;28;20356;-36
2021/11/08 15:04:27;;;;;;;0.32;0.32;;;;;;;;;;5071454;28;20028;-36
2021/11/08 15:06:57;;;;;;;0.65;0.30;;;;;;;;;;5071318;28;20471;-37
2021/11/08 15:09:24;;;;;;;0.35;0.35;;;;;;;;;;5071518;28;20039;-36
2021/11/08 15:11:49;;;;;;;0.40;0.40;;;;;;;;;;5071389;28;20538;-36
2021/11/08 15:14:17;;;;;;;0.30;0.30;;;;;;;;;;5053325;28;20123;-37
2021/11/08 15:16:44;;;;;;;0.50;0.50;;;;;;;;;;5071569;28;20103;-36
2021/11/08 15:19:09;;;;;;;0.63;0.50;;;;;;;;;;5071279;28;20039;-36
2021/11/08 15:21:35;;;;;;;0.80;0.25;;;;;;;;;;5071306;28;20020;-36
2021/11/08 15:24:11;;;;;;;0.20;0.20;;;;;;;;;;5071290;28;20537;-36
2021/11/08 15:26:38;;;;;;;0.50;0.50;;;;;;;;;;5071120;28;20020;-37
2021/11/08 15:29:10;;;;;;;0.50;0.40;;;;;;;;;;5071314;28;20021;-36
2021/11/08 15:31:36;;;;;;;0.52;0.45;;;;;;;;;;5073984;28;20032;-36
2021/11/08 15:34:06;;;;;;;0.88;0.60;;;;;;;;;;5075201;28;20036;-36
2021/11/08 15:36:34;;;;;;;0.40;0.32;;;;;;;;;;5075293;28;20086;-37
2021/11/08 15:39:03;;;;;;;0.60;0.60;;;;;;;;;;5075199;28;20027;-36
2021/11/08 15:41:28;;;;;;;0.57;0.43;;;;;;;;;;5075196;28;20056;-37
2021/11/08 15:43:54;;;;;;;1.15;0.50;;;;;;;;;;5057407;28;20060;-36
2021/11/08 15:46:20;;;;;;;0.80;0.40;;;;;;;;;;5075375;28;20029;-36
2021/11/08 15:48:50;;;;;;;0.60;0.52;;;;;;;;;;5075046;28;20047;-37
2021/11/08 15:51:16;;;;;;;0.40;0.30;;;;;;;;;;5057079;28;20032;-36
2021/11/08 15:53:42;;;;;;;0.90;0.40;;;;;;;;;;5074946;28;20096;-36
2021/11/08 15:56:08;;;;;;;0.75;0.38;;;;;;;;;;5075019;28;20116;-36
2021/11/08 15:58:34;;;;;;;0.43;0.38;;;;;;;;;;5056837;28;20458;-36
2021/11/08 16:01:00;;;;;;;0.50;0.40;;;;;;;;;;5074822;28;20414;-36
2021/11/08 16:03:26;;;;;;;0.65;0.40;;;;;;;;;;5074652;28;20070;-36
2021/11/08 16:05:52;;;;;;;0.85;0.50;;;;;;;;;;5074786;28;20086;-36
2021/11/08 16:08:18;;;;;;;0.35;0.30;;;;;;;;;;5074668;28;20425;-36
2021/11/08 16:10:45;;;;;;;0.43;0.40;;;;;;;;;;5074499;28;20032;-36
2021/11/08 16:13:13;;;;;;;0.28;0.28;;;;;;;;;;5074634;28;20027;-36
2021/11/08 16:15:40;;;;;;;0.63;0.52;;;;;;;;;;5074446;28;20483;-36
2021/11/08 16:18:06;;;;;;;1.27;0.50;;;;;;;;;;5074784;28;20492;-36
2021/11/08 16:20:31;;;;;;;1.30;0.70;;;;;;;;;;5074435;28;20080;-37
2021/11/08 16:22:57;;;;;;;0.50;0.47;;;;;;;;;;5074362;28;20021;-36
2021/11/08 16:25:24;;;;;;;0.88;0.50;;;;;;;;;;5074308;28;20041;-36
2021/11/08 16:27:49;;;;;;;0.40;0.40;;;;;;;;;;5074256;28;20458;-36